createdAt,value
2022-12-31T00:00:18.228Z,13.1
2022-12-31T00:01:18.316Z,13.1
2022-12-31T00:02:18.355Z,13.1
2022-12-31T00:03:18.244Z,13.1
2022-12-31T00:04:18.183Z,13.1
2022-12-31T00:05:18.203Z,13.1
2022-12-31T00:06:18.182Z,13.1
2022-12-31T00:07:18.306Z,13.1
2022-12-31T00:08:18.210Z,13.1
2022-12-31T00:09:18.264Z,13.1
2022-12-31T00:10:18.199Z,13.1
2022-12-31T00:11:18.233Z,13.1
2022-12-31T00:12:18.267Z,13.1
2022-12-31T00:13:18.221Z,13.2
2022-12-31T00:14:18.224Z,13.2
2022-12-31T00:15:18.210Z,13.2
2022-12-31T00:16:18.261Z,13.1
2022-12-31T00:17:18.205Z,13.1
2022-12-31T00:18:18.204Z,13.1
2022-12-31T00:19:18.266Z,13.1
2022-12-31T00:20:18.218Z,13.1
2022-12-31T00:21:18.212Z,13.1
2022-12-31T00:22:18.238Z,13.1
2022-12-31T00:23:18.209Z,13.2
2022-12-31T00:24:18.245Z,13.2
2022-12-31T00:25:18.195Z,13.2
2022-12-31T00:26:18.215Z,13.2
2022-12-31T00:27:18.275Z,13.2
2022-12-31T00:28:18.226Z,13.2
2022-12-31T00:29:18.364Z,13.2
2022-12-31T00:30:18.217Z,13.2
2022-12-31T00:31:18.299Z,13.2
2022-12-31T00:32:18.296Z,13.2
2022-12-31T00:33:18.223Z,13.3
2022-12-31T00:34:18.252Z,13.3
2022-12-31T00:35:18.215Z,13.3
2022-12-31T00:36:18.216Z,13.4
2022-12-31T00:37:18.228Z,13.4
2022-12-31T00:38:18.212Z,13.4
2022-12-31T00:39:18.244Z,13.4
2022-12-31T00:40:18.230Z,13.5
2022-12-31T00:41:18.261Z,13.5
2022-12-31T00:42:18.222Z,13.5
2022-12-31T00:43:18.221Z,13.5
2022-12-31T00:44:18.340Z,13.5
2022-12-31T00:45:18.221Z,13.5
2022-12-31T00:46:18.266Z,13.5
2022-12-31T00:47:18.216Z,13.5
2022-12-31T00:48:18.232Z,13.5
2022-12-31T00:49:18.311Z,13.5
2022-12-31T00:50:18.234Z,13.5
2022-12-31T00:51:18.216Z,13.5
2022-12-31T00:52:18.238Z,13.5
2022-12-31T00:53:18.220Z,13.4
2022-12-31T00:54:18.275Z,13.4
2022-12-31T00:55:18.301Z,13.4
2022-12-31T00:56:18.346Z,13.3
2022-12-31T00:57:18.320Z,13.3
2022-12-31T00:58:18.222Z,13.3
2022-12-31T00:59:18.295Z,13.3
2022-12-31T01:00:18.224Z,13.2
2022-12-31T01:01:18.428Z,13.2
2022-12-31T01:02:18.477Z,13.2
2022-12-31T01:03:18.316Z,13.1
2022-12-31T01:04:18.274Z,13.1
2022-12-31T01:05:18.221Z,13.1
2022-12-31T01:06:18.291Z,13
2022-12-31T01:07:18.252Z,13
2022-12-31T01:08:18.282Z,13
2022-12-31T01:09:18.272Z,13
2022-12-31T01:10:18.294Z,13
2022-12-31T01:11:18.219Z,13
2022-12-31T01:12:18.245Z,13
2022-12-31T01:13:18.232Z,12.9
2022-12-31T01:14:18.277Z,12.9
2022-12-31T01:15:18.340Z,12.9
2022-12-31T01:16:18.227Z,12.8
2022-12-31T01:17:18.253Z,12.8
2022-12-31T01:18:18.229Z,12.8
2022-12-31T01:19:18.297Z,12.8
2022-12-31T01:20:18.282Z,12.7
2022-12-31T01:21:18.359Z,12.7
2022-12-31T01:22:18.322Z,12.7
2022-12-31T01:23:18.331Z,12.6
2022-12-31T01:24:18.340Z,12.6
2022-12-31T01:25:18.398Z,12.6
2022-12-31T01:26:18.323Z,12.6
2022-12-31T01:27:18.327Z,12.6
2022-12-31T01:28:18.373Z,12.6
2022-12-31T01:29:18.328Z,12.6
2022-12-31T01:30:18.312Z,12.6
2022-12-31T01:31:18.450Z,12.6
2022-12-31T01:32:18.323Z,12.6
2022-12-31T01:33:18.392Z,12.5
2022-12-31T01:34:18.485Z,12.5
2022-12-31T01:35:18.501Z,12.5
2022-12-31T01:36:23.497Z,12.6
2022-12-31T01:37:18.485Z,12.6
2022-12-31T01:38:18.443Z,12.6
2022-12-31T01:39:18.448Z,12.6
2022-12-31T01:40:18.506Z,12.6
2022-12-31T01:41:18.456Z,12.6
2022-12-31T01:42:18.511Z,12.6
2022-12-31T01:43:18.447Z,12.6
2022-12-31T01:44:18.899Z,12.6
2022-12-31T01:45:18.511Z,12.6
2022-12-31T01:46:18.543Z,12.7
2022-12-31T01:47:18.485Z,12.7
2022-12-31T01:48:18.486Z,12.7
2022-12-31T01:49:18.513Z,12.7
2022-12-31T01:50:18.529Z,12.8
2022-12-31T01:51:18.528Z,12.8
2022-12-31T01:52:18.504Z,12.8
2022-12-31T01:53:18.593Z,12.8
2022-12-31T01:54:18.585Z,12.8
2022-12-31T01:55:18.559Z,12.8
2022-12-31T01:56:18.546Z,12.9
2022-12-31T01:57:18.549Z,12.9
2022-12-31T01:58:18.702Z,12.9
2022-12-31T01:59:18.575Z,12.9
2022-12-31T02:00:18.647Z,12.9
2022-12-31T02:01:18.681Z,12.9
2022-12-31T02:02:18.741Z,12.9
2022-12-31T02:03:18.612Z,12.9
2022-12-31T02:04:18.636Z,12.9
2022-12-31T02:05:18.620Z,12.9
2022-12-31T02:06:18.618Z,13
2022-12-31T02:07:18.626Z,13
2022-12-31T02:08:18.644Z,13
2022-12-31T02:09:18.654Z,13
2022-12-31T02:10:18.643Z,13
2022-12-31T02:11:18.624Z,13
2022-12-31T02:12:18.691Z,13
2022-12-31T02:13:18.599Z,13.1
2022-12-31T02:14:18.676Z,13.1
2022-12-31T02:15:18.743Z,13.1
2022-12-31T02:16:18.689Z,13.2
2022-12-31T02:17:18.637Z,13.2
2022-12-31T02:18:18.666Z,13.2
2022-12-31T02:19:18.638Z,13.2
2022-12-31T02:20:18.693Z,13.4
2022-12-31T02:21:18.689Z,13.4
2022-12-31T02:22:18.616Z,13.4
2022-12-31T02:23:18.648Z,13.5
2022-12-31T02:24:18.745Z,13.5
2022-12-31T02:25:18.699Z,13.5
2022-12-31T02:26:18.667Z,13.6
2022-12-31T02:27:18.721Z,13.6
2022-12-31T02:28:18.695Z,13.6
2022-12-31T02:29:18.702Z,13.6
2022-12-31T02:30:18.640Z,13.7
2022-12-31T02:31:18.710Z,13.7
2022-12-31T02:32:18.706Z,13.7
2022-12-31T02:33:18.685Z,13.8
2022-12-31T02:34:18.701Z,13.8
2022-12-31T02:35:18.733Z,13.8
2022-12-31T02:36:18.694Z,13.9
2022-12-31T02:37:18.689Z,13.9
2022-12-31T02:38:18.760Z,13.9
2022-12-31T02:39:18.708Z,13.9
2022-12-31T02:40:18.746Z,13.9
2022-12-31T02:41:18.699Z,13.9
2022-12-31T02:42:18.809Z,13.9
2022-12-31T02:43:18.676Z,13.9
2022-12-31T02:44:18.715Z,13.9
2022-12-31T02:45:18.721Z,13.9
2022-12-31T02:46:18.730Z,13.9
2022-12-31T02:47:18.709Z,13.9
2022-12-31T02:48:18.731Z,13.9
2022-12-31T02:49:18.754Z,13.9
2022-12-31T02:50:18.768Z,13.9
2022-12-31T02:51:18.738Z,13.9
2022-12-31T02:52:18.729Z,13.9
2022-12-31T02:53:18.716Z,13.8
2022-12-31T02:54:18.741Z,13.8
2022-12-31T02:55:18.761Z,13.8
2022-12-31T02:56:18.772Z,13.9
2022-12-31T02:57:18.758Z,13.9
2022-12-31T02:58:18.758Z,13.9
2022-12-31T02:59:18.815Z,13.9
2022-12-31T03:00:18.916Z,13.9
2022-12-31T03:01:18.939Z,13.9
2022-12-31T03:02:18.891Z,13.9
2022-12-31T03:03:19.112Z,13.9
2022-12-31T03:04:19.056Z,13.9
2022-12-31T03:05:18.955Z,13.9
2022-12-31T03:06:18.837Z,13.9
2022-12-31T03:07:18.845Z,13.9
2022-12-31T03:08:18.912Z,13.9
2022-12-31T03:09:18.886Z,13.9
2022-12-31T03:10:18.848Z,13.9
2022-12-31T03:11:18.854Z,13.9
2022-12-31T03:12:18.852Z,13.9
2022-12-31T03:13:18.860Z,13.9
2022-12-31T03:14:18.888Z,13.9
2022-12-31T03:15:18.884Z,13.9
2022-12-31T03:16:18.900Z,13.9
2022-12-31T03:17:19.027Z,13.9
2022-12-31T03:18:18.964Z,13.9
2022-12-31T03:19:18.929Z,13.9
2022-12-31T03:20:18.969Z,13.9
2022-12-31T03:21:18.903Z,13.9
2022-12-31T03:22:18.948Z,13.9
2022-12-31T03:23:18.971Z,13.8
2022-12-31T03:24:19.011Z,13.8
2022-12-31T03:25:18.985Z,13.8
2022-12-31T03:26:18.974Z,13.8
2022-12-31T03:27:19.005Z,13.8
2022-12-31T03:28:18.985Z,13.8
2022-12-31T03:29:18.949Z,13.8
2022-12-31T03:30:18.941Z,13.8
2022-12-31T03:31:19.090Z,13.8
2022-12-31T03:32:19.081Z,13.8
2022-12-31T03:33:19.009Z,13.7
2022-12-31T03:34:19.038Z,13.7
2022-12-31T03:35:19.027Z,13.7
2022-12-31T03:36:19.066Z,13.8
2022-12-31T03:37:19.050Z,13.8
2022-12-31T03:38:19.021Z,13.8
2022-12-31T03:39:19.044Z,13.8
2022-12-31T03:40:19.025Z,13.8
2022-12-31T03:41:19.025Z,13.8
2022-12-31T03:42:19.028Z,13.8
2022-12-31T03:43:19.021Z,14
2022-12-31T03:44:19.049Z,14
2022-12-31T03:45:19.101Z,14
2022-12-31T03:46:19.111Z,14.1
2022-12-31T03:47:19.052Z,14.1
2022-12-31T03:48:19.059Z,14.1
2022-12-31T03:49:19.035Z,14.1
2022-12-31T03:50:19.062Z,14.2
2022-12-31T03:51:19.056Z,14.2
2022-12-31T03:52:19.063Z,14.2
2022-12-31T03:53:19.073Z,14.4
2022-12-31T03:54:19.086Z,14.4
2022-12-31T03:55:19.130Z,14.4
2022-12-31T03:56:19.136Z,14.4
2022-12-31T03:57:19.278Z,14.4
2022-12-31T03:58:19.177Z,14.4
2022-12-31T03:59:19.164Z,14.4
2022-12-31T04:00:19.091Z,14.5
2022-12-31T04:01:19.157Z,14.5
2022-12-31T04:02:22.005Z,14.5
2022-12-31T04:03:19.182Z,14.6
2022-12-31T04:04:19.157Z,14.6
2022-12-31T04:05:19.126Z,14.6
2022-12-31T04:06:19.169Z,14.6
2022-12-31T04:07:19.133Z,14.6
2022-12-31T04:08:19.206Z,14.6
2022-12-31T04:09:19.229Z,14.6
2022-12-31T04:10:19.158Z,14.7
2022-12-31T04:11:21.093Z,14.7
2022-12-31T04:12:19.240Z,14.7
2022-12-31T04:13:19.212Z,14.7
2022-12-31T04:14:19.228Z,14.7
2022-12-31T04:15:19.187Z,14.7
2022-12-31T04:16:19.196Z,14.8
2022-12-31T04:17:19.273Z,14.8
2022-12-31T04:18:19.219Z,14.8
2022-12-31T04:19:19.271Z,14.8
2022-12-31T04:20:19.252Z,14.8
2022-12-31T04:21:19.234Z,14.8
2022-12-31T04:22:19.337Z,14.8
2022-12-31T04:23:19.228Z,14.9
2022-12-31T04:24:19.316Z,14.9
2022-12-31T04:25:19.256Z,14.9
2022-12-31T04:26:19.346Z,14.9
2022-12-31T04:27:19.300Z,14.9
2022-12-31T04:28:19.318Z,14.9
2022-12-31T04:29:19.297Z,14.9
2022-12-31T04:30:19.324Z,15
2022-12-31T04:31:19.369Z,15
2022-12-31T04:32:19.296Z,15
2022-12-31T04:33:19.335Z,15
2022-12-31T04:34:19.314Z,15
2022-12-31T04:35:19.367Z,15
2022-12-31T04:36:19.289Z,15
2022-12-31T04:37:19.369Z,15
2022-12-31T04:38:19.365Z,15
2022-12-31T04:39:19.400Z,15
2022-12-31T04:40:19.384Z,15
2022-12-31T04:41:19.343Z,14.9
2022-12-31T04:42:19.370Z,14.9
2022-12-31T04:43:19.366Z,14.9
2022-12-31T04:44:19.495Z,14.9
2022-12-31T04:45:19.353Z,14.8
2022-12-31T04:46:19.506Z,14.8
2022-12-31T04:47:23.527Z,14.8
2022-12-31T04:48:19.364Z,14.8
2022-12-31T04:49:19.476Z,14.7
2022-12-31T04:50:19.418Z,14.7
2022-12-31T04:51:19.395Z,14.7
2022-12-31T04:52:19.392Z,14.7
2022-12-31T04:53:19.461Z,14.7
2022-12-31T04:54:19.481Z,14.7
2022-12-31T04:55:19.417Z,14.7
2022-12-31T04:56:19.437Z,14.7
2022-12-31T04:57:19.407Z,14.6
2022-12-31T04:58:19.421Z,14.6
2022-12-31T04:59:19.423Z,14.6
2022-12-31T05:00:19.468Z,14.6
2022-12-31T05:01:19.434Z,14.6
2022-12-31T05:02:19.626Z,14.6
2022-12-31T05:03:19.491Z,14.6
2022-12-31T05:04:19.510Z,14.5
2022-12-31T05:05:19.482Z,14.5
2022-12-31T05:06:19.456Z,14.5
2022-12-31T05:07:19.456Z,14.5
2022-12-31T05:08:19.501Z,14.5
2022-12-31T05:09:19.468Z,14.5
2022-12-31T05:10:19.491Z,14.5
2022-12-31T05:11:19.588Z,14.5
2022-12-31T05:12:19.513Z,14.5
2022-12-31T05:13:19.459Z,14.5
2022-12-31T05:14:19.504Z,14.5
2022-12-31T05:15:19.520Z,14.5
2022-12-31T05:16:19.511Z,14.5
2022-12-31T05:17:19.487Z,14.5
2022-12-31T05:18:19.574Z,14.5
2022-12-31T05:19:19.560Z,14.5
2022-12-31T05:20:19.568Z,14.5
2022-12-31T05:21:19.548Z,14.5
2022-12-31T05:22:19.538Z,14.5
2022-12-31T05:23:19.627Z,14.5
2022-12-31T05:24:19.653Z,14.6
2022-12-31T05:25:19.603Z,14.6
2022-12-31T05:26:19.587Z,14.6
2022-12-31T05:27:19.565Z,14.6
2022-12-31T05:28:19.636Z,14.8
2022-12-31T05:29:19.594Z,14.8
2022-12-31T05:30:19.634Z,14.8
2022-12-31T05:31:19.636Z,14.8
2022-12-31T05:32:19.611Z,15
2022-12-31T05:33:19.641Z,15
2022-12-31T05:34:19.656Z,15
2022-12-31T05:35:19.686Z,15
2022-12-31T05:36:19.703Z,15
2022-12-31T05:37:19.711Z,15
2022-12-31T05:38:19.737Z,15.1
2022-12-31T05:39:19.694Z,15.1
2022-12-31T05:40:19.710Z,15.1
2022-12-31T05:41:19.755Z,15.1
2022-12-31T05:42:19.768Z,15.1
2022-12-31T05:43:19.673Z,15.1
2022-12-31T05:44:19.724Z,15.1
2022-12-31T05:45:21.823Z,15.1
2022-12-31T05:46:19.856Z,15.1
2022-12-31T05:47:19.704Z,15.1
2022-12-31T05:48:19.687Z,15.1
2022-12-31T05:49:19.739Z,15.1
2022-12-31T05:50:19.722Z,15.1
2022-12-31T05:51:19.767Z,15.1
2022-12-31T05:52:19.744Z,15
2022-12-31T05:53:19.753Z,15
2022-12-31T05:54:19.852Z,15
2022-12-31T05:55:19.781Z,15
2022-12-31T05:56:19.814Z,15
2022-12-31T05:57:19.730Z,15
2022-12-31T05:58:19.765Z,15
2022-12-31T05:59:19.833Z,15
2022-12-31T06:00:19.771Z,15
2022-12-31T06:01:19.797Z,15
2022-12-31T06:02:19.794Z,15
2022-12-31T06:03:19.928Z,15
2022-12-31T06:04:19.818Z,15
2022-12-31T06:05:25.800Z,15
2022-12-31T06:06:19.807Z,15
2022-12-31T06:07:19.797Z,15
2022-12-31T06:08:19.821Z,15
2022-12-31T06:09:19.835Z,15
2022-12-31T06:10:19.821Z,15
2022-12-31T06:11:19.857Z,15
2022-12-31T06:12:19.856Z,15
2022-12-31T06:13:19.856Z,15
2022-12-31T06:14:19.917Z,15
2022-12-31T06:15:19.838Z,15
2022-12-31T06:16:19.940Z,15
2022-12-31T06:17:19.915Z,15
2022-12-31T06:18:19.878Z,14.9
2022-12-31T06:19:19.933Z,14.9
2022-12-31T06:20:19.932Z,14.9
2022-12-31T06:21:19.942Z,14.9
2022-12-31T06:22:19.920Z,14.9
2022-12-31T06:23:19.878Z,14.9
2022-12-31T06:24:19.965Z,14.9
2022-12-31T06:25:19.968Z,14.9
2022-12-31T06:26:19.975Z,14.9
2022-12-31T06:27:20.023Z,14.9
2022-12-31T06:28:20.652Z,14.9
2022-12-31T06:29:20.006Z,14.9
2022-12-31T06:30:20.028Z,14.9
2022-12-31T06:31:20.120Z,14.9
2022-12-31T06:32:19.970Z,15
2022-12-31T06:33:19.945Z,15
2022-12-31T06:34:20.025Z,15
2022-12-31T06:35:20.054Z,15.1
2022-12-31T06:36:20.021Z,15.1
2022-12-31T06:37:20.031Z,15.1
2022-12-31T06:38:20.004Z,15.2
2022-12-31T06:39:20.043Z,15.2
2022-12-31T06:40:20.099Z,15.2
2022-12-31T06:41:20.090Z,15.2
2022-12-31T06:42:20.031Z,15.3
2022-12-31T06:43:20.056Z,15.3
2022-12-31T06:44:20.074Z,15.3
2022-12-31T06:45:20.052Z,15.4
2022-12-31T06:46:20.066Z,15.4
2022-12-31T06:47:20.133Z,15.4
2022-12-31T06:48:20.108Z,15.4
2022-12-31T06:49:20.195Z,15.4
2022-12-31T06:50:20.223Z,15.4
2022-12-31T06:51:20.201Z,15.4
2022-12-31T06:52:20.221Z,15.5
2022-12-31T06:53:20.234Z,15.5
2022-12-31T06:54:20.298Z,15.5
2022-12-31T06:55:20.305Z,15.6
2022-12-31T06:56:20.293Z,15.6
2022-12-31T06:57:20.332Z,15.6
2022-12-31T06:58:20.337Z,15.6
2022-12-31T06:59:20.310Z,15.6
2022-12-31T07:00:20.265Z,15.6
2022-12-31T07:01:20.519Z,15.6
2022-12-31T07:02:20.338Z,15.6
2022-12-31T07:03:20.338Z,15.6
2022-12-31T07:04:20.363Z,15.6
2022-12-31T07:05:20.313Z,15.7
2022-12-31T07:06:20.329Z,15.7
2022-12-31T07:07:20.302Z,15.7
2022-12-31T07:08:20.329Z,15.7
2022-12-31T07:09:20.419Z,15.7
2022-12-31T07:10:24.085Z,15.7
2022-12-31T07:11:20.354Z,15.7
2022-12-31T07:12:20.368Z,15.7
2022-12-31T07:13:20.372Z,15.7
2022-12-31T07:14:20.373Z,15.7
2022-12-31T07:15:20.367Z,15.8
2022-12-31T07:16:20.463Z,15.8
2022-12-31T07:17:20.382Z,15.8
2022-12-31T07:18:20.374Z,15.8
2022-12-31T07:19:20.476Z,15.8
2022-12-31T07:20:20.405Z,15.8
2022-12-31T07:21:20.410Z,15.8
2022-12-31T07:22:20.573Z,15.9
2022-12-31T07:23:20.425Z,15.9
2022-12-31T07:24:20.547Z,15.9
2022-12-31T07:25:20.531Z,15.9
2022-12-31T07:26:20.452Z,15.9
2022-12-31T07:27:20.443Z,15.9
2022-12-31T07:28:20.454Z,15.9
2022-12-31T07:29:20.442Z,15.9
2022-12-31T07:30:20.450Z,15.9
2022-12-31T07:31:20.467Z,15.9
2022-12-31T07:32:20.452Z,15.9
2022-12-31T07:33:20.483Z,15.9
2022-12-31T07:34:20.490Z,15.9
2022-12-31T07:35:20.486Z,15.9
2022-12-31T07:36:20.479Z,15.9
2022-12-31T07:37:20.473Z,15.9
2022-12-31T07:38:20.554Z,15.9
2022-12-31T07:39:20.490Z,15.9
2022-12-31T07:40:20.438Z,15.9
2022-12-31T07:41:20.511Z,15.9
2022-12-31T07:42:20.445Z,15.9
2022-12-31T07:43:20.509Z,15.9
2022-12-31T07:44:20.569Z,15.9
2022-12-31T07:45:20.463Z,15.9
2022-12-31T07:46:20.640Z,15.9
2022-12-31T07:47:20.512Z,15.9
2022-12-31T07:48:20.513Z,15.9
2022-12-31T07:49:20.496Z,15.9
2022-12-31T07:50:20.512Z,15.9
2022-12-31T07:51:20.515Z,15.9
2022-12-31T07:52:20.536Z,15.9
2022-12-31T07:53:20.492Z,15.9
2022-12-31T07:54:20.580Z,15.9
2022-12-31T07:55:20.573Z,15.9
2022-12-31T07:56:20.521Z,15.9
2022-12-31T07:57:20.530Z,15.9
2022-12-31T07:58:20.535Z,15.9
2022-12-31T07:59:24.165Z,15.9
2022-12-31T08:00:20.604Z,15.9
2022-12-31T08:01:20.666Z,15.9
2022-12-31T08:02:20.654Z,15.9
2022-12-31T08:03:20.558Z,15.9
2022-12-31T08:04:20.601Z,15.9
2022-12-31T08:05:20.548Z,15.9
2022-12-31T08:06:20.568Z,15.9
2022-12-31T08:07:20.618Z,15.9
2022-12-31T08:08:20.652Z,15.9
2022-12-31T08:09:20.625Z,15.9
2022-12-31T08:10:20.678Z,15.9
2022-12-31T08:11:20.640Z,15.9
2022-12-31T08:12:20.591Z,15.8
2022-12-31T08:13:20.649Z,15.8
2022-12-31T08:14:20.637Z,15.8
2022-12-31T08:15:24.181Z,15.8
2022-12-31T08:16:20.692Z,15.8
2022-12-31T08:17:20.688Z,15.8
2022-12-31T08:18:20.712Z,15.8
2022-12-31T08:19:20.696Z,15.8
2022-12-31T08:20:20.707Z,15.8
2022-12-31T08:21:20.689Z,15.8
2022-12-31T08:22:20.652Z,15.7
2022-12-31T08:23:20.707Z,15.7
2022-12-31T08:24:20.902Z,15.7
2022-12-31T08:25:20.653Z,15.8
2022-12-31T08:26:20.792Z,15.8
2022-12-31T08:27:20.714Z,15.8
2022-12-31T08:28:20.661Z,15.8
2022-12-31T08:29:20.819Z,15.8
2022-12-31T08:30:20.745Z,15.8
2022-12-31T08:31:20.765Z,15.8
2022-12-31T08:32:20.722Z,15.9
2022-12-31T08:33:20.815Z,15.9
2022-12-31T08:34:20.757Z,15.9
2022-12-31T08:35:20.773Z,15.9
2022-12-31T08:36:20.749Z,15.9
2022-12-31T08:37:20.773Z,15.9
2022-12-31T08:38:20.780Z,15.9
2022-12-31T08:39:20.745Z,15.9
2022-12-31T08:40:20.761Z,15.9
2022-12-31T08:41:20.773Z,15.9
2022-12-31T08:42:20.764Z,15.9
2022-12-31T08:43:20.747Z,15.9
2022-12-31T08:44:20.816Z,15.9
2022-12-31T08:45:20.766Z,15.9
2022-12-31T08:46:20.868Z,15.9
2022-12-31T08:47:20.809Z,15.9
2022-12-31T08:48:20.874Z,15.9
2022-12-31T08:49:20.845Z,15.9
2022-12-31T08:50:20.905Z,15.9
2022-12-31T08:51:20.838Z,15.9
2022-12-31T08:52:20.789Z,15.9
2022-12-31T08:53:20.823Z,15.9
2022-12-31T08:54:20.865Z,15.9
2022-12-31T08:55:20.894Z,16
2022-12-31T08:56:20.833Z,16
2022-12-31T08:57:20.912Z,16
2022-12-31T08:58:21.144Z,16
2022-12-31T08:59:20.889Z,16
2022-12-31T09:00:20.827Z,16
2022-12-31T09:01:21.048Z,16
2022-12-31T09:02:21.001Z,16.1
2022-12-31T09:03:20.934Z,16.1
2022-12-31T09:04:20.839Z,16.1
2022-12-31T09:05:21.187Z,16.2
2022-12-31T09:06:20.827Z,16.2
2022-12-31T09:07:20.807Z,16.2
2022-12-31T09:08:20.878Z,16.3
2022-12-31T09:09:20.878Z,16.3
2022-12-31T09:10:20.874Z,16.3
2022-12-31T09:11:23.369Z,16.3
2022-12-31T09:12:20.973Z,16.4
2022-12-31T09:13:20.880Z,16.4
2022-12-31T09:14:20.895Z,16.4
2022-12-31T09:15:20.880Z,16.5
2022-12-31T09:16:20.898Z,16.5
2022-12-31T09:17:20.957Z,16.5
2022-12-31T09:18:21.097Z,16.6
2022-12-31T09:19:20.958Z,16.6
2022-12-31T09:20:21.058Z,16.6
2022-12-31T09:21:20.919Z,16.6
2022-12-31T09:22:20.918Z,16.6
2022-12-31T09:23:20.924Z,16.6
2022-12-31T09:24:20.998Z,16.6
2022-12-31T09:25:21.210Z,16.7
2022-12-31T09:26:20.994Z,16.7
2022-12-31T09:27:27.187Z,16.7
2022-12-31T09:28:21.193Z,16.7
2022-12-31T09:29:21.070Z,16.7
2022-12-31T09:30:21.025Z,16.7
2022-12-31T09:31:21.026Z,16.7
2022-12-31T09:32:21.039Z,16.8
2022-12-31T09:33:21.003Z,16.8
2022-12-31T09:34:21.135Z,16.8
2022-12-31T09:35:21.005Z,16.8
2022-12-31T09:36:21.000Z,16.8
2022-12-31T09:37:21.082Z,16.8
2022-12-31T09:38:20.987Z,16.8
2022-12-31T09:39:21.029Z,16.8
2022-12-31T09:40:21.040Z,16.8
2022-12-31T09:41:21.000Z,16.8
2022-12-31T09:42:20.992Z,16.8
2022-12-31T09:43:21.031Z,16.8
2022-12-31T09:44:21.166Z,16.8
2022-12-31T09:45:21.062Z,16.9
2022-12-31T09:46:21.056Z,16.9
2022-12-31T09:47:21.024Z,16.9
2022-12-31T09:48:21.031Z,16.9
2022-12-31T09:49:21.088Z,16.9
2022-12-31T09:50:21.155Z,16.9
2022-12-31T09:51:25.179Z,16.9
2022-12-31T09:52:21.342Z,16.9
2022-12-31T09:53:21.083Z,16.9
2022-12-31T09:54:21.110Z,16.9
2022-12-31T09:55:21.189Z,17
2022-12-31T09:56:21.075Z,17
2022-12-31T09:57:21.264Z,17
2022-12-31T09:58:21.280Z,17
2022-12-31T09:59:21.131Z,17
2022-12-31T10:00:21.107Z,17
2022-12-31T10:01:21.348Z,17
2022-12-31T10:02:21.296Z,17
2022-12-31T10:03:21.225Z,17
2022-12-31T10:04:23.188Z,17
2022-12-31T10:05:21.087Z,17
2022-12-31T10:06:21.259Z,17
2022-12-31T10:07:21.198Z,17
2022-12-31T10:08:21.129Z,17
2022-12-31T10:09:21.106Z,17
2022-12-31T10:10:21.354Z,17
2022-12-31T10:11:21.191Z,17
2022-12-31T10:12:21.355Z,17
2022-12-31T10:13:21.237Z,17
2022-12-31T10:14:21.194Z,17
2022-12-31T10:15:21.183Z,17
2022-12-31T10:16:21.312Z,17
2022-12-31T10:17:21.126Z,17
2022-12-31T10:18:21.322Z,17
2022-12-31T10:19:21.222Z,17
2022-12-31T10:20:21.169Z,17
2022-12-31T10:21:21.240Z,17
2022-12-31T10:22:21.274Z,17
2022-12-31T10:23:21.224Z,17
2022-12-31T10:24:21.255Z,17
2022-12-31T10:25:21.270Z,17
2022-12-31T10:26:21.236Z,17
2022-12-31T10:27:21.235Z,17
2022-12-31T10:28:21.358Z,17
2022-12-31T10:29:21.254Z,17
2022-12-31T10:30:21.280Z,17
2022-12-31T10:31:21.322Z,17
2022-12-31T10:32:23.824Z,17
2022-12-31T10:33:21.232Z,17
2022-12-31T10:34:21.359Z,17
2022-12-31T10:35:21.301Z,17
2022-12-31T10:36:21.307Z,17
2022-12-31T10:37:21.279Z,17
2022-12-31T10:38:21.318Z,17
2022-12-31T10:39:24.414Z,17
2022-12-31T10:40:21.573Z,17
2022-12-31T10:41:21.343Z,17
2022-12-31T10:42:21.462Z,17
2022-12-31T10:43:21.301Z,17
2022-12-31T10:44:21.393Z,17
2022-12-31T10:45:21.401Z,17.1
2022-12-31T10:46:23.196Z,17.1
2022-12-31T10:47:21.399Z,17.1
2022-12-31T10:48:21.566Z,17.1
2022-12-31T10:49:21.442Z,17.1
2022-12-31T10:50:21.399Z,17.1
2022-12-31T10:51:21.438Z,17.1
2022-12-31T10:52:21.369Z,17.1
2022-12-31T10:53:21.376Z,17.1
2022-12-31T10:54:21.577Z,17.1
2022-12-31T10:55:21.413Z,17.1
2022-12-31T10:56:21.489Z,17.1
2022-12-31T10:57:21.570Z,17.1
2022-12-31T10:58:21.521Z,17.2
2022-12-31T10:59:21.429Z,17.2
2022-12-31T11:00:21.406Z,17.2
2022-12-31T11:01:21.471Z,17.2
2022-12-31T11:02:21.764Z,17.2
2022-12-31T11:03:27.172Z,17.2
2022-12-31T11:04:21.828Z,17.2
2022-12-31T11:05:21.640Z,17.3
2022-12-31T11:06:21.544Z,17.3
2022-12-31T11:07:21.479Z,17.3
2022-12-31T11:08:21.542Z,17.3
2022-12-31T11:09:21.552Z,17.3
2022-12-31T11:10:21.563Z,17.3
2022-12-31T11:11:21.489Z,17.3
2022-12-31T11:12:21.582Z,17.3
2022-12-31T11:13:21.494Z,17.3
2022-12-31T11:14:21.678Z,17.3
2022-12-31T11:15:21.537Z,17.4
2022-12-31T11:16:21.546Z,17.4
2022-12-31T11:17:21.507Z,17.4
2022-12-31T11:18:21.503Z,17.4
2022-12-31T11:19:21.488Z,17.4
2022-12-31T11:20:21.492Z,17.4
2022-12-31T11:21:26.330Z,17.4
2022-12-31T11:22:21.500Z,17.5
2022-12-31T11:23:21.514Z,17.5
2022-12-31T11:24:21.542Z,17.5
2022-12-31T11:25:21.494Z,17.6
2022-12-31T11:26:21.507Z,17.6
2022-12-31T11:27:21.524Z,17.6
2022-12-31T11:28:21.531Z,17.7
2022-12-31T11:29:21.542Z,17.7
2022-12-31T11:30:21.560Z,17.7
2022-12-31T11:31:21.559Z,17.7
2022-12-31T11:32:21.552Z,17.9
2022-12-31T11:33:21.518Z,17.9
2022-12-31T11:34:21.551Z,17.9
2022-12-31T11:35:21.515Z,17.9
2022-12-31T11:36:21.556Z,17.9
2022-12-31T11:37:21.511Z,17.9
2022-12-31T11:38:21.467Z,18
2022-12-31T11:39:24.676Z,18
2022-12-31T11:40:21.692Z,18
2022-12-31T11:41:21.485Z,18
2022-12-31T11:42:21.463Z,18
2022-12-31T11:43:21.582Z,18
2022-12-31T11:44:21.499Z,18
2022-12-31T11:45:21.522Z,18
2022-12-31T11:46:21.511Z,18
2022-12-31T11:47:21.543Z,18
2022-12-31T11:48:30.418Z,18
2022-12-31T11:49:21.546Z,18
2022-12-31T11:50:21.511Z,18
2022-12-31T11:51:21.492Z,18
2022-12-31T11:52:22.007Z,18.1
2022-12-31T11:53:21.534Z,18.1
2022-12-31T11:54:21.486Z,18.1
2022-12-31T11:55:21.504Z,18.1
2022-12-31T11:56:21.494Z,18.1
2022-12-31T11:57:21.485Z,18.1
2022-12-31T11:58:21.619Z,18.1
2022-12-31T11:59:21.609Z,18.2
2022-12-31T12:00:21.539Z,18.2
2022-12-31T12:01:21.538Z,18.2
2022-12-31T12:02:21.611Z,18.2
2022-12-31T12:03:21.544Z,18.2
2022-12-31T12:04:21.518Z,18.2
2022-12-31T12:05:21.542Z,18.2
2022-12-31T12:06:21.529Z,18.2
2022-12-31T12:07:21.552Z,18.2
2022-12-31T12:08:21.586Z,18.2
2022-12-31T12:09:21.524Z,18.2
2022-12-31T12:10:21.675Z,18.2
2022-12-31T12:11:21.547Z,18.2
2022-12-31T12:12:21.522Z,18.2
2022-12-31T12:13:21.540Z,18.2
2022-12-31T12:14:21.527Z,18.2
2022-12-31T12:15:21.532Z,18.3
2022-12-31T12:16:21.663Z,18.3
2022-12-31T12:17:21.575Z,18.3
2022-12-31T12:18:21.552Z,18.3
2022-12-31T12:19:21.545Z,18.4
2022-12-31T12:20:21.551Z,18.4
2022-12-31T12:21:21.530Z,18.4
2022-12-31T12:22:21.536Z,18.5
2022-12-31T12:23:21.524Z,18.5
2022-12-31T12:24:21.609Z,18.5
2022-12-31T12:25:21.545Z,18.5
2022-12-31T12:26:21.528Z,18.5
2022-12-31T12:27:21.552Z,18.5
2022-12-31T12:28:21.566Z,18.5
2022-12-31T12:29:21.593Z,18.5
2022-12-31T12:30:21.536Z,18.5
2022-12-31T12:31:21.684Z,18.5
2022-12-31T12:32:21.527Z,18.5
2022-12-31T12:33:21.529Z,18.5
2022-12-31T12:34:21.653Z,18.5
2022-12-31T12:35:21.580Z,18.6
2022-12-31T12:36:21.541Z,18.6
2022-12-31T12:37:21.600Z,18.6
2022-12-31T12:38:21.638Z,18.6
2022-12-31T12:39:21.588Z,18.6
2022-12-31T12:40:21.594Z,18.6
2022-12-31T12:41:21.602Z,18.6
2022-12-31T12:42:21.578Z,18.6
2022-12-31T12:43:21.602Z,18.6
2022-12-31T12:44:21.583Z,18.6
2022-12-31T12:45:21.577Z,18.6
2022-12-31T12:46:21.585Z,18.6
2022-12-31T12:47:21.572Z,18.6
2022-12-31T12:48:21.578Z,18.6
2022-12-31T12:49:21.581Z,18.6
2022-12-31T12:50:21.567Z,18.6
2022-12-31T12:51:21.524Z,18.6
2022-12-31T12:52:21.569Z,18.6
2022-12-31T12:53:21.597Z,18.6
2022-12-31T12:54:21.577Z,18.6
2022-12-31T12:55:21.642Z,18.6
2022-12-31T12:56:21.622Z,18.6
2022-12-31T12:57:21.579Z,18.6
2022-12-31T12:58:21.596Z,18.6
2022-12-31T12:59:21.676Z,18.6
2022-12-31T13:00:21.832Z,18.6
2022-12-31T13:01:21.664Z,18.6
2022-12-31T13:02:21.704Z,18.6
2022-12-31T13:03:21.612Z,18.6
2022-12-31T13:04:37.125Z,18.6
2022-12-31T13:05:26.099Z,18.6
2022-12-31T13:06:21.580Z,18.6
2022-12-31T13:07:21.604Z,18.6
2022-12-31T13:08:21.641Z,18.6
2022-12-31T13:09:21.622Z,18.6
2022-12-31T13:10:21.599Z,18.6
2022-12-31T13:11:21.603Z,18.6
2022-12-31T13:12:21.644Z,18.6
2022-12-31T13:13:24.128Z,18.6
2022-12-31T13:14:21.599Z,18.6
2022-12-31T13:15:21.588Z,18.5
2022-12-31T13:16:21.652Z,18.5
2022-12-31T13:17:21.584Z,18.5
2022-12-31T13:18:21.685Z,18.5
2022-12-31T13:19:21.605Z,18.6
2022-12-31T13:20:21.622Z,18.6
2022-12-31T13:21:21.574Z,18.6
2022-12-31T13:22:21.633Z,18.6
2022-12-31T13:23:21.638Z,18.6
2022-12-31T13:24:21.675Z,18.6
2022-12-31T13:25:21.672Z,18.6
2022-12-31T13:26:21.624Z,18.6
2022-12-31T13:27:21.618Z,18.6